sensor_id;sensor_type;location;lat;lon;timestamp;temperature;humidity
18291;DHT22;9271;48.590;8.866;2023-03-16T00:00:13;2.90;99.90
18291;DHT22;9271;48.590;8.866;2023-03-16T00:02:41;2.90;99.90
18291;DHT22;9271;48.590;8.866;2023-03-16T00:05:08;2.80;99.90
18291;DHT22;9271;48.590;8.866;2023-03-16T00:07:35;2.90;99.90
18291;DHT22;9271;48.590;8.866;2023-03-16T00:10:02;2.90;99.90
18291;DHT22;9271;48.590;8.866;2023-03-16T00:12:29;2.90;99.90
18291;DHT22;9271;48.590;8.866;2023-03-16T00:14:59;2.90;99.90
18291;DHT22;9271;48.590;8.866;2023-03-16T00:17:27;2.90;99.90
18291;DHT22;9271;48.590;8.866;2023-03-16T00:19:55;2.90;99.90
18291;DHT22;9271;48.590;8.866;2023-03-16T00:22:24;2.90;99.90
18291;DHT22;9271;48.590;8.866;2023-03-16T00:24:51;2.80;99.90
18291;DHT22;9271;48.590;8.866;2023-03-16T00:27:19;2.80;99.90
18291;DHT22;9271;48.590;8.866;2023-03-16T00:29:48;2.70;99.90
18291;DHT22;9271;48.590;8.866;2023-03-16T00:32:21;2.80;99.90
18291;DHT22;9271;48.590;8.866;2023-03-16T00:34:50;2.70;99.90
18291;DHT22;9271;48.590;8.866;2023-03-16T00:37:18;2.80;99.90
18291;DHT22;9271;48.590;8.866;2023-03-16T00:39:45;2.70;99.90
18291;DHT22;9271;48.590;8.866;2023-03-16T00:42:13;2.80;99.90
18291;DHT22;9271;48.590;8.866;2023-03-16T00:44:40;2.70;99.90
18291;DHT22;9271;48.590;8.866;2023-03-16T00:47:08;2.70;99.90
18291;DHT22;9271;48.590;8.866;2023-03-16T00:49:35;2.70;99.90
18291;DHT22;9271;48.590;8.866;2023-03-16T00:52:05;2.70;99.90
18291;DHT22;9271;48.590;8.866;2023-03-16T00:54:32;2.80;99.90
18291;DHT22;9271;48.590;8.866;2023-03-16T00:56:59;2.70;99.90
18291;DHT22;9271;48.590;8.866;2023-03-16T00:59:26;2.70;99.90
18291;DHT22;9271;48.590;8.866;2023-03-16T01:01:54;2.70;99.90
18291;DHT22;9271;48.590;8.866;2023-03-16T01:04:21;2.80;99.90
18291;DHT22;9271;48.590;8.866;2023-03-16T01:06:48;2.80;99.90
18291;DHT22;9271;48.590;8.866;2023-03-16T01:09:17;2.80;99.90
18291;DHT22;9271;48.590;8.866;2023-03-16T01:11:44;2.80;99.90
18291;DHT22;9271;48.590;8.866;2023-03-16T01:14:14;2.70;99.90
18291;DHT22;9271;48.590;8.866;2023-03-16T01:16:41;2.60;99.90
18291;DHT22;9271;48.590;8.866;2023-03-16T01:19:10;2.60;99.90
18291;DHT22;9271;48.590;8.866;2023-03-16T01:21:38;2.50;99.90
18291;DHT22;9271;48.590;8.866;2023-03-16T01:24:05;2.60;99.90
18291;DHT22;9271;48.590;8.866;2023-03-16T01:26:33;2.80;99.90
18291;DHT22;9271;48.590;8.866;2023-03-16T01:29:00;2.60;99.90
18291;DHT22;9271;48.590;8.866;2023-03-16T01:31:27;2.50;99.90
18291;DHT22;9271;48.590;8.866;2023-03-16T01:33:54;2.40;99.90
18291;DHT22;9271;48.590;8.866;2023-03-16T01:36:21;2.40;99.90
18291;DHT22;9271;48.590;8.866;2023-03-16T01:38:48;2.30;99.90
18291;DHT22;9271;48.590;8.866;2023-03-16T01:41:14;2.20;99.90
18291;DHT22;9271;48.590;8.866;2023-03-16T01:43:42;2.20;99.90
18291;DHT22;9271;48.590;8.866;2023-03-16T01:46:19;2.30;99.90
18291;DHT22;9271;48.590;8.866;2023-03-16T01:48:57;2.30;99.90
18291;DHT22;9271;48.590;8.866;2023-03-16T01:51:28;2.30;99.90
18291;DHT22;9271;48.590;8.866;2023-03-16T01:54:02;2.20;99.90
18291;DHT22;9271;48.590;8.866;2023-03-16T01:56:32;2.10;99.90
18291;DHT22;9271;48.590;8.866;2023-03-16T01:59:06;2.00;99.90
18291;DHT22;9271;48.590;8.866;2023-03-16T02:01:34;2.00;99.90
18291;DHT22;9271;48.590;8.866;2023-03-16T02:04:07;2.00;99.90
18291;DHT22;9271;48.590;8.866;2023-03-16T02:06:38;2.00;99.90
18291;DHT22;9271;48.590;8.866;2023-03-16T02:09:05;2.10;99.90
18291;DHT22;9271;48.590;8.866;2023-03-16T02:11:33;2.20;99.90
18291;DHT22;9271;48.590;8.866;2023-03-16T02:14:06;2.20;99.90
18291;DHT22;9271;48.590;8.866;2023-03-16T02:16:34;2.20;99.90
18291;DHT22;9271;48.590;8.866;2023-03-16T02:19:00;2.20;99.90
18291;DHT22;9271;48.590;8.866;2023-03-16T02:21:32;2.10;99.90
18291;DHT22;9271;48.590;8.866;2023-03-16T02:24:01;2.30;99.90
18291;DHT22;9271;48.590;8.866;2023-03-16T02:26:34;2.50;99.90
18291;DHT22;9271;48.590;8.866;2023-03-16T02:29:16;2.50;99.90
18291;DHT22;9271;48.590;8.866;2023-03-16T02:31:45;2.60;99.90
18291;DHT22;9271;48.590;8.866;2023-03-16T02:34:14;2.60;99.90
18291;DHT22;9271;48.590;8.866;2023-03-16T02:36:43;2.50;99.90
18291;DHT22;9271;48.590;8.866;2023-03-16T02:39:11;2.70;99.90
18291;DHT22;9271;48.590;8.866;2023-03-16T02:41:38;2.90;99.90
18291;DHT22;9271;48.590;8.866;2023-03-16T02:44:08;3.00;99.90
18291;DHT22;9271;48.590;8.866;2023-03-16T02:46:39;2.90;99.90
18291;DHT22;9271;48.590;8.866;2023-03-16T02:49:12;3.00;99.90
18291;DHT22;9271;48.590;8.866;2023-03-16T02:51:41;3.20;99.90
18291;DHT22;9271;48.590;8.866;2023-03-16T02:54:09;3.20;99.90
18291;DHT22;9271;48.590;8.866;2023-03-16T02:56:35;3.30;99.90
18291;DHT22;9271;48.590;8.866;2023-03-16T02:59:02;3.10;99.90
18291;DHT22;9271;48.590;8.866;2023-03-16T03:01:29;3.10;99.90
18291;DHT22;9271;48.590;8.866;2023-03-16T03:03:56;3.20;99.90
18291;DHT22;9271;48.590;8.866;2023-03-16T03:06:24;3.20;99.90
18291;DHT22;9271;48.590;8.866;2023-03-16T03:08:51;3.30;99.90
18291;DHT22;9271;48.590;8.866;2023-03-16T03:11:18;3.30;99.90
18291;DHT22;9271;48.590;8.866;2023-03-16T03:13:45;3.30;99.90
18291;DHT22;9271;48.590;8.866;2023-03-16T03:16:11;3.20;99.90
18291;DHT22;9271;48.590;8.866;2023-03-16T03:18:38;3.20;99.90
18291;DHT22;9271;48.590;8.866;2023-03-16T03:21:06;3.00;99.90
18291;DHT22;9271;48.590;8.866;2023-03-16T03:23:34;3.20;99.90
18291;DHT22;9271;48.590;8.866;2023-03-16T03:26:01;3.40;99.90
18291;DHT22;9271;48.590;8.866;2023-03-16T03:28:29;3.50;99.90
18291;DHT22;9271;48.590;8.866;2023-03-16T03:30:56;3.60;99.90
18291;DHT22;9271;48.590;8.866;2023-03-16T03:33:22;3.50;99.90
18291;DHT22;9271;48.590;8.866;2023-03-16T03:35:52;3.60;99.90
18291;DHT22;9271;48.590;8.866;2023-03-16T03:38:19;3.40;99.90
18291;DHT22;9271;48.590;8.866;2023-03-16T03:40:49;3.50;99.90
18291;DHT22;9271;48.590;8.866;2023-03-16T03:43:15;3.40;99.90
18291;DHT22;9271;48.590;8.866;2023-03-16T03:45:42;3.00;99.90
18291;DHT22;9271;48.590;8.866;2023-03-16T03:48:09;3.00;99.90
18291;DHT22;9271;48.590;8.866;2023-03-16T03:50:35;2.60;99.90
18291;DHT22;9271;48.590;8.866;2023-03-16T03:53:03;2.80;99.90
18291;DHT22;9271;48.590;8.866;2023-03-16T03:55:29;3.10;99.90
18291;DHT22;9271;48.590;8.866;2023-03-16T03:57:57;3.10;99.90
18291;DHT22;9271;48.590;8.866;2023-03-16T04:00:24;3.10;99.90
18291;DHT22;9271;48.590;8.866;2023-03-16T04:02:51;3.10;99.90
18291;DHT22;9271;48.590;8.866;2023-03-16T04:05:18;2.50;99.90
18291;DHT22;9271;48.590;8.866;2023-03-16T04:07:44;1.90;99.90
18291;DHT22;9271;48.590;8.866;2023-03-16T04:10:11;2.10;99.90
18291;DHT22;9271;48.590;8.866;2023-03-16T04:12:39;2.50;99.90
18291;DHT22;9271;48.590;8.866;2023-03-16T04:15:08;2.70;99.90
18291;DHT22;9271;48.590;8.866;2023-03-16T04:17:35;2.80;99.90
18291;DHT22;9271;48.590;8.866;2023-03-16T04:20:02;2.90;99.90
18291;DHT22;9271;48.590;8.866;2023-03-16T04:22:32;3.00;99.90
18291;DHT22;9271;48.590;8.866;2023-03-16T04:24:58;3.00;99.90
18291;DHT22;9271;48.590;8.866;2023-03-16T04:27:27;2.70;99.90
18291;DHT22;9271;48.590;8.866;2023-03-16T04:29:53;2.80;99.90
18291;DHT22;9271;48.590;8.866;2023-03-16T04:32:25;3.00;99.90
18291;DHT22;9271;48.590;8.866;2023-03-16T04:34:51;3.20;99.90
18291;DHT22;9271;48.590;8.866;2023-03-16T04:37:20;3.10;99.90
18291;DHT22;9271;48.590;8.866;2023-03-16T04:39:46;3.10;99.90
18291;DHT22;9271;48.590;8.866;2023-03-16T04:42:13;2.90;99.90
18291;DHT22;9271;48.590;8.866;2023-03-16T04:44:40;2.90;99.90
18291;DHT22;9271;48.590;8.866;2023-03-16T04:47:09;3.00;99.90
18291;DHT22;9271;48.590;8.866;2023-03-16T04:49:37;2.90;99.90
18291;DHT22;9271;48.590;8.866;2023-03-16T04:52:05;2.80;99.90
18291;DHT22;9271;48.590;8.866;2023-03-16T04:54:32;2.90;99.90
18291;DHT22;9271;48.590;8.866;2023-03-16T04:56:59;3.00;99.90
18291;DHT22;9271;48.590;8.866;2023-03-16T04:59:28;3.00;99.90
18291;DHT22;9271;48.590;8.866;2023-03-16T05:01:55;3.10;99.90
18291;DHT22;9271;48.590;8.866;2023-03-16T05:04:21;3.00;99.90
18291;DHT22;9271;48.590;8.866;2023-03-16T05:06:50;3.00;99.90
18291;DHT22;9271;48.590;8.866;2023-03-16T05:09:17;3.10;99.90
18291;DHT22;9271;48.590;8.866;2023-03-16T05:11:45;2.90;99.90
18291;DHT22;9271;48.590;8.866;2023-03-16T05:14:12;3.00;99.90
18291;DHT22;9271;48.590;8.866;2023-03-16T05:16:38;2.70;99.90
18291;DHT22;9271;48.590;8.866;2023-03-16T05:19:06;2.80;99.90
18291;DHT22;9271;48.590;8.866;2023-03-16T05:21:33;2.80;99.90
18291;DHT22;9271;48.590;8.866;2023-03-16T05:24:03;3.00;99.90
18291;DHT22;9271;48.590;8.866;2023-03-16T05:26:30;3.10;99.90
18291;DHT22;9271;48.590;8.866;2023-03-16T05:28:57;3.00;99.90
18291;DHT22;9271;48.590;8.866;2023-03-16T05:31:23;3.00;99.90
18291;DHT22;9271;48.590;8.866;2023-03-16T05:33:51;3.00;99.90
18291;DHT22;9271;48.590;8.866;2023-03-16T05:36:18;2.90;99.90
18291;DHT22;9271;48.590;8.866;2023-03-16T05:38:45;2.80;99.90
18291;DHT22;9271;48.590;8.866;2023-03-16T05:41:13;2.80;99.90
18291;DHT22;9271;48.590;8.866;2023-03-16T05:43:39;1.90;99.90
18291;DHT22;9271;48.590;8.866;2023-03-16T05:46:06;1.90;99.90
18291;DHT22;9271;48.590;8.866;2023-03-16T05:48:33;2.10;99.90
18291;DHT22;9271;48.590;8.866;2023-03-16T05:51:00;2.30;99.90
18291;DHT22;9271;48.590;8.866;2023-03-16T05:53:30;2.00;99.90
18291;DHT22;9271;48.590;8.866;2023-03-16T05:55:56;2.10;99.90
18291;DHT22;9271;48.590;8.866;2023-03-16T05:58:24;2.40;99.90
18291;DHT22;9271;48.590;8.866;2023-03-16T06:00:51;2.40;99.90
18291;DHT22;9271;48.590;8.866;2023-03-16T06:03:19;2.50;99.90
18291;DHT22;9271;48.590;8.866;2023-03-16T06:05:47;2.70;99.90
18291;DHT22;9271;48.590;8.866;2023-03-16T06:08:13;2.70;99.90
18291;DHT22;9271;48.590;8.866;2023-03-16T06:10:41;2.80;99.90
18291;DHT22;9271;48.590;8.866;2023-03-16T06:13:07;2.80;99.90
18291;DHT22;9271;48.590;8.866;2023-03-16T06:15:35;2.90;99.90
18291;DHT22;9271;48.590;8.866;2023-03-16T06:18:02;2.90;99.90
18291;DHT22;9271;48.590;8.866;2023-03-16T06:20:29;2.90;99.90
18291;DHT22;9271;48.590;8.866;2023-03-16T06:22:55;2.80;99.90
18291;DHT22;9271;48.590;8.866;2023-03-16T06:25:22;2.70;99.90
18291;DHT22;9271;48.590;8.866;2023-03-16T06:27:49;2.80;99.90
18291;DHT22;9271;48.590;8.866;2023-03-16T06:30:16;2.80;99.90
18291;DHT22;9271;48.590;8.866;2023-03-16T06:32:44;3.10;99.90
18291;DHT22;9271;48.590;8.866;2023-03-16T06:35:12;3.20;99.90
18291;DHT22;9271;48.590;8.866;2023-03-16T06:37:39;2.40;99.90
18291;DHT22;9271;48.590;8.866;2023-03-16T06:40:07;2.60;99.90
18291;DHT22;9271;48.590;8.866;2023-03-16T06:42:34;2.20;99.90
18291;DHT22;9271;48.590;8.866;2023-03-16T06:45:01;2.10;99.90
18291;DHT22;9271;48.590;8.866;2023-03-16T06:47:27;2.50;99.90
18291;DHT22;9271;48.590;8.866;2023-03-16T06:49:55;2.70;99.90
18291;DHT22;9271;48.590;8.866;2023-03-16T06:52:22;2.50;99.90
18291;DHT22;9271;48.590;8.866;2023-03-16T06:54:49;2.70;99.90
18291;DHT22;9271;48.590;8.866;2023-03-16T06:57:16;2.60;99.90
18291;DHT22;9271;48.590;8.866;2023-03-16T06:59:43;3.20;99.90
18291;DHT22;9271;48.590;8.866;2023-03-16T07:02:11;3.80;99.90
18291;DHT22;9271;48.590;8.866;2023-03-16T07:04:38;4.30;99.90
18291;DHT22;9271;48.590;8.866;2023-03-16T07:07:07;4.40;99.90
18291;DHT22;9271;48.590;8.866;2023-03-16T07:09:34;4.70;99.60
18291;DHT22;9271;48.590;8.866;2023-03-16T07:12:01;4.80;99.00
18291;DHT22;9271;48.590;8.866;2023-03-16T07:14:28;5.20;98.90
18291;DHT22;9271;48.590;8.866;2023-03-16T07:16:54;5.30;99.20
18291;DHT22;9271;48.590;8.866;2023-03-16T07:19:21;5.30;98.70
18291;DHT22;9271;48.590;8.866;2023-03-16T07:21:48;5.60;98.50
18291;DHT22;9271;48.590;8.866;2023-03-16T07:24:17;5.90;96.90
18291;DHT22;9271;48.590;8.866;2023-03-16T07:26:43;5.90;97.00
18291;DHT22;9271;48.590;8.866;2023-03-16T07:29:11;6.10;96.60
18291;DHT22;9271;48.590;8.866;2023-03-16T07:31:39;5.80;96.90
18291;DHT22;9271;48.590;8.866;2023-03-16T07:34:05;6.10;97.40
18291;DHT22;9271;48.590;8.866;2023-03-16T07:36:32;6.50;96.70
18291;DHT22;9271;48.590;8.866;2023-03-16T07:38:58;6.60;96.20
18291;DHT22;9271;48.590;8.866;2023-03-16T07:41:27;7.00;95.90
18291;DHT22;9271;48.590;8.866;2023-03-16T07:43:53;7.30;94.80
18291;DHT22;9271;48.590;8.866;2023-03-16T07:46:20;7.30;95.20
18291;DHT22;9271;48.590;8.866;2023-03-16T07:48:46;7.70;95.20
18291;DHT22;9271;48.590;8.866;2023-03-16T07:51:13;8.00;94.20
18291;DHT22;9271;48.590;8.866;2023-03-16T07:53:40;7.80;94.20
18291;DHT22;9271;48.590;8.866;2023-03-16T07:56:07;8.20;92.40
18291;DHT22;9271;48.590;8.866;2023-03-16T07:58:35;8.70;92.70
18291;DHT22;9271;48.590;8.866;2023-03-16T08:01:02;8.70;92.70
18291;DHT22;9271;48.590;8.866;2023-03-16T08:03:29;8.80;92.20
18291;DHT22;9271;48.590;8.866;2023-03-16T08:05:56;9.40;91.90
18291;DHT22;9271;48.590;8.866;2023-03-16T08:08:23;9.20;90.90
18291;DHT22;9271;48.590;8.866;2023-03-16T08:10:50;9.30;91.90
18291;DHT22;9271;48.590;8.866;2023-03-16T08:13:18;9.20;91.50
18291;DHT22;9271;48.590;8.866;2023-03-16T08:15:47;8.60;92.20
18291;DHT22;9271;48.590;8.866;2023-03-16T08:18:13;9.50;91.20
18291;DHT22;9271;48.590;8.866;2023-03-16T08:20:40;10.70;89.10
18291;DHT22;9271;48.590;8.866;2023-03-16T08:23:08;11.20;86.40
18291;DHT22;9271;48.590;8.866;2023-03-16T08:25:36;11.60;84.30
18291;DHT22;9271;48.590;8.866;2023-03-16T08:28:03;11.30;83.50
18291;DHT22;9271;48.590;8.866;2023-03-16T08:30:30;11.60;83.80
18291;DHT22;9271;48.590;8.866;2023-03-16T08:32:58;11.90;83.20
18291;DHT22;9271;48.590;8.866;2023-03-16T08:35:26;12.80;81.10
18291;DHT22;9271;48.590;8.866;2023-03-16T08:37:53;13.90;77.90
18291;DHT22;9271;48.590;8.866;2023-03-16T08:40:21;15.50;72.90
18291;DHT22;9271;48.590;8.866;2023-03-16T08:42:49;16.00;70.10
18291;DHT22;9271;48.590;8.866;2023-03-16T08:45:16;16.30;67.00
18291;DHT22;9271;48.590;8.866;2023-03-16T08:47:44;16.20;66.40
18291;DHT22;9271;48.590;8.866;2023-03-16T08:50:12;16.40;64.40
18291;DHT22;9271;48.590;8.866;2023-03-16T08:52:40;17.50;61.70
18291;DHT22;9271;48.590;8.866;2023-03-16T08:55:08;17.90;60.20
18291;DHT22;9271;48.590;8.866;2023-03-16T08:57:35;18.80;59.30
18291;DHT22;9271;48.590;8.866;2023-03-16T09:00:04;19.00;57.10
18291;DHT22;9271;48.590;8.866;2023-03-16T09:02:37;20.90;54.80
18291;DHT22;9271;48.590;8.866;2023-03-16T09:05:06;21.90;51.90
18291;DHT22;9271;48.590;8.866;2023-03-16T09:07:34;22.90;48.50
18291;DHT22;9271;48.590;8.866;2023-03-16T09:10:01;24.20;45.30
18291;DHT22;9271;48.590;8.866;2023-03-16T09:12:30;24.20;40.70
18291;DHT22;9271;48.590;8.866;2023-03-16T09:14:57;24.30;42.70
18291;DHT22;9271;48.590;8.866;2023-03-16T09:17:24;25.20;39.60
18291;DHT22;9271;48.590;8.866;2023-03-16T09:19:51;25.60;39.70
18291;DHT22;9271;48.590;8.866;2023-03-16T09:22:18;25.90;39.10
18291;DHT22;9271;48.590;8.866;2023-03-16T09:24:46;25.10;36.60
18291;DHT22;9271;48.590;8.866;2023-03-16T09:27:14;22.50;39.70
18291;DHT22;9271;48.590;8.866;2023-03-16T09:29:41;22.00;40.00
18291;DHT22;9271;48.590;8.866;2023-03-16T09:32:08;23.50;39.30
18291;DHT22;9271;48.590;8.866;2023-03-16T09:34:35;24.40;37.30
18291;DHT22;9271;48.590;8.866;2023-03-16T09:37:02;24.50;35.30
18291;DHT22;9271;48.590;8.866;2023-03-16T09:39:29;24.50;36.40
18291;DHT22;9271;48.590;8.866;2023-03-16T09:42:02;25.30;34.80
18291;DHT22;9271;48.590;8.866;2023-03-16T09:44:39;25.80;34.50
18291;DHT22;9271;48.590;8.866;2023-03-16T09:47:10;27.20;34.10
18291;DHT22;9271;48.590;8.866;2023-03-16T09:49:41;26.90;32.20
18291;DHT22;9271;48.590;8.866;2023-03-16T09:52:18;27.00;31.00
18291;DHT22;9271;48.590;8.866;2023-03-16T09:54:54;25.80;32.80
18291;DHT22;9271;48.590;8.866;2023-03-16T09:57:26;25.30;33.00
18291;DHT22;9271;48.590;8.866;2023-03-16T09:59:54;25.00;33.30
18291;DHT22;9271;48.590;8.866;2023-03-16T10:02:43;23.40;34.80
18291;DHT22;9271;48.590;8.866;2023-03-16T10:05:14;22.60;37.20
18291;DHT22;9271;48.590;8.866;2023-03-16T10:07:51;22.00;35.20
18291;DHT22;9271;48.590;8.866;2023-03-16T10:10:26;21.00;38.60
18291;DHT22;9271;48.590;8.866;2023-03-16T10:13:00;22.60;36.60
18291;DHT22;9271;48.590;8.866;2023-03-16T10:15:31;23.30;36.90
18291;DHT22;9271;48.590;8.866;2023-03-16T10:18:04;23.90;35.70
18291;DHT22;9271;48.590;8.866;2023-03-16T10:20:33;23.80;33.70
18291;DHT22;9271;48.590;8.866;2023-03-16T10:23:11;25.80;34.00
18291;DHT22;9271;48.590;8.866;2023-03-16T10:25:43;26.40;31.50
18291;DHT22;9271;48.590;8.866;2023-03-16T10:28:14;26.10;32.40
18291;DHT22;9271;48.590;8.866;2023-03-16T10:30:41;27.50;30.30
18291;DHT22;9271;48.590;8.866;2023-03-16T10:33:16;28.40;30.00
18291;DHT22;9271;48.590;8.866;2023-03-16T10:35:46;29.70;28.80
18291;DHT22;9271;48.590;8.866;2023-03-16T10:38:30;30.50;27.00
18291;DHT22;9271;48.590;8.866;2023-03-16T10:40:57;30.60;26.10
18291;DHT22;9271;48.590;8.866;2023-03-16T10:43:27;30.20;27.40
18291;DHT22;9271;48.590;8.866;2023-03-16T10:46:00;29.70;25.70
18291;DHT22;9271;48.590;8.866;2023-03-16T10:48:30;28.10;26.30
18291;DHT22;9271;48.590;8.866;2023-03-16T10:50:59;27.40;27.40
18291;DHT22;9271;48.590;8.866;2023-03-16T10:53:29;27.30;28.40
18291;DHT22;9271;48.590;8.866;2023-03-16T10:55:58;27.40;29.20
18291;DHT22;9271;48.590;8.866;2023-03-16T10:58:30;26.00;28.40
18291;DHT22;9271;48.590;8.866;2023-03-16T11:00:58;25.20;30.60
18291;DHT22;9271;48.590;8.866;2023-03-16T11:03:28;24.20;30.80
18291;DHT22;9271;48.590;8.866;2023-03-16T11:05:57;25.70;31.50
18291;DHT22;9271;48.590;8.866;2023-03-16T11:08:25;26.70;29.50
18291;DHT22;9271;48.590;8.866;2023-03-16T11:10:57;27.40;27.90
18291;DHT22;9271;48.590;8.866;2023-03-16T11:13:33;27.90;26.90
18291;DHT22;9271;48.590;8.866;2023-03-16T11:16:04;28.00;27.30
18291;DHT22;9271;48.590;8.866;2023-03-16T11:18:35;28.50;25.80
18291;DHT22;9271;48.590;8.866;2023-03-16T11:21:10;27.90;25.20
18291;DHT22;9271;48.590;8.866;2023-03-16T11:23:40;27.80;27.00
18291;DHT22;9271;48.590;8.866;2023-03-16T11:26:14;28.30;26.60
18291;DHT22;9271;48.590;8.866;2023-03-16T11:28:47;28.10;27.50
18291;DHT22;9271;48.590;8.866;2023-03-16T11:31:21;28.60;26.50
18291;DHT22;9271;48.590;8.866;2023-03-16T11:33:52;28.10;26.60
18291;DHT22;9271;48.590;8.866;2023-03-16T11:36:38;28.40;26.50
18291;DHT22;9271;48.590;8.866;2023-03-16T11:39:15;28.80;26.20
18291;DHT22;9271;48.590;8.866;2023-03-16T11:41:53;27.40;26.60
18291;DHT22;9271;48.590;8.866;2023-03-16T11:44:32;27.80;26.40
18291;DHT22;9271;48.590;8.866;2023-03-16T11:47:07;29.90;25.40
18291;DHT22;9271;48.590;8.866;2023-03-16T11:49:54;30.70;24.70
18291;DHT22;9271;48.590;8.866;2023-03-16T11:52:33;31.30;24.60
18291;DHT22;9271;48.590;8.866;2023-03-16T11:55:16;31.40;23.60
18291;DHT22;9271;48.590;8.866;2023-03-16T11:57:54;30.90;23.50
18291;DHT22;9271;48.590;8.866;2023-03-16T12:00:32;30.40;24.80
18291;DHT22;9271;48.590;8.866;2023-03-16T12:03:23;31.90;22.30
18291;DHT22;9271;48.590;8.866;2023-03-16T12:05:57;32.20;22.50
18291;DHT22;9271;48.590;8.866;2023-03-16T12:08:39;31.00;22.30
18291;DHT22;9271;48.590;8.866;2023-03-16T12:11:11;30.40;22.90
18291;DHT22;9271;48.590;8.866;2023-03-16T12:13:55;29.50;23.90
18291;DHT22;9271;48.590;8.866;2023-03-16T12:16:29;29.60;23.60
18291;DHT22;9271;48.590;8.866;2023-03-16T12:18:59;28.60;24.00
18291;DHT22;9271;48.590;8.866;2023-03-16T12:21:29;28.10;24.80
18291;DHT22;9271;48.590;8.866;2023-03-16T12:24:00;28.90;24.50
18291;DHT22;9271;48.590;8.866;2023-03-16T12:26:30;27.80;23.70
18291;DHT22;9271;48.590;8.866;2023-03-16T12:28:58;26.40;26.30
18291;DHT22;9271;48.590;8.866;2023-03-16T12:31:35;26.20;26.60
18291;DHT22;9271;48.590;8.866;2023-03-16T12:34:11;27.20;26.00
18291;DHT22;9271;48.590;8.866;2023-03-16T12:37:00;28.10;25.50
18291;DHT22;9271;48.590;8.866;2023-03-16T12:39:42;28.80;25.10
18291;DHT22;9271;48.590;8.866;2023-03-16T12:42:31;29.80;23.60
18291;DHT22;9271;48.590;8.866;2023-03-16T12:45:10;27.90;24.50
18291;DHT22;9271;48.590;8.866;2023-03-16T12:47:47;26.20;26.20
18291;DHT22;9271;48.590;8.866;2023-03-16T12:50:17;24.90;25.60
18291;DHT22;9271;48.590;8.866;2023-03-16T12:52:47;24.70;26.80
18291;DHT22;9271;48.590;8.866;2023-03-16T12:55:16;26.30;26.90
18291;DHT22;9271;48.590;8.866;2023-03-16T12:57:44;26.30;26.10
18291;DHT22;9271;48.590;8.866;2023-03-16T13:00:13;24.20;27.00
18291;DHT22;9271;48.590;8.866;2023-03-16T13:02:44;23.20;29.40
18291;DHT22;9271;48.590;8.866;2023-03-16T13:05:13;23.30;28.10
18291;DHT22;9271;48.590;8.866;2023-03-16T13:07:46;24.40;27.60
18291;DHT22;9271;48.590;8.866;2023-03-16T13:10:15;26.30;27.50
18291;DHT22;9271;48.590;8.866;2023-03-16T13:12:46;29.10;25.20
18291;DHT22;9271;48.590;8.866;2023-03-16T13:15:26;31.30;23.70
18291;DHT22;9271;48.590;8.866;2023-03-16T13:18:05;31.50;21.60
18291;DHT22;9271;48.590;8.866;2023-03-16T13:20:53;31.40;21.90
18291;DHT22;9271;48.590;8.866;2023-03-16T13:23:24;29.10;21.70
18291;DHT22;9271;48.590;8.866;2023-03-16T13:26:02;26.90;24.70
18291;DHT22;9271;48.590;8.866;2023-03-16T13:28:31;27.70;24.30
18291;DHT22;9271;48.590;8.866;2023-03-16T13:30:59;28.30;23.90
18291;DHT22;9271;48.590;8.866;2023-03-16T13:33:31;28.90;24.10
18291;DHT22;9271;48.590;8.866;2023-03-16T13:36:02;29.70;21.60
18291;DHT22;9271;48.590;8.866;2023-03-16T13:38:30;29.60;22.10
18291;DHT22;9271;48.590;8.866;2023-03-16T13:41:01;30.10;21.90
18291;DHT22;9271;48.590;8.866;2023-03-16T13:43:29;30.90;20.90
18291;DHT22;9271;48.590;8.866;2023-03-16T13:45:57;30.00;21.30
18291;DHT22;9271;48.590;8.866;2023-03-16T13:48:24;29.80;21.40
18291;DHT22;9271;48.590;8.866;2023-03-16T13:50:53;30.60;21.40
18291;DHT22;9271;48.590;8.866;2023-03-16T13:53:23;31.90;21.20
18291;DHT22;9271;48.590;8.866;2023-03-16T13:55:51;32.10;20.10
18291;DHT22;9271;48.590;8.866;2023-03-16T13:58:22;31.50;21.00
18291;DHT22;9271;48.590;8.866;2023-03-16T14:00:54;31.10;20.40
18291;DHT22;9271;48.590;8.866;2023-03-16T14:03:22;29.20;21.20
18291;DHT22;9271;48.590;8.866;2023-03-16T14:05:58;29.60;20.80
18291;DHT22;9271;48.590;8.866;2023-03-16T14:08:26;30.50;20.80
18291;DHT22;9271;48.590;8.866;2023-03-16T14:10:55;31.20;20.70
18291;DHT22;9271;48.590;8.866;2023-03-16T14:13:29;31.10;20.40
18291;DHT22;9271;48.590;8.866;2023-03-16T14:15:59;30.10;20.10
18291;DHT22;9271;48.590;8.866;2023-03-16T14:18:31;28.30;21.30
18291;DHT22;9271;48.590;8.866;2023-03-16T14:21:04;27.30;22.10
18291;DHT22;9271;48.590;8.866;2023-03-16T14:23:34;26.60;22.50
18291;DHT22;9271;48.590;8.866;2023-03-16T14:26:03;26.10;24.70
18291;DHT22;9271;48.590;8.866;2023-03-16T14:28:32;26.90;22.90
18291;DHT22;9271;48.590;8.866;2023-03-16T14:31:04;27.90;22.00
18291;DHT22;9271;48.590;8.866;2023-03-16T14:33:33;29.50;21.40
18291;DHT22;9271;48.590;8.866;2023-03-16T14:36:10;30.00;19.90
18291;DHT22;9271;48.590;8.866;2023-03-16T14:38:37;29.60;20.60
18291;DHT22;9271;48.590;8.866;2023-03-16T14:41:11;28.60;21.70
18291;DHT22;9271;48.590;8.866;2023-03-16T14:43:46;27.70;22.70
18291;DHT22;9271;48.590;8.866;2023-03-16T14:46:16;25.90;21.90
18291;DHT22;9271;48.590;8.866;2023-03-16T14:48:44;24.00;23.60
18291;DHT22;9271;48.590;8.866;2023-03-16T14:51:13;22.40;24.90
18291;DHT22;9271;48.590;8.866;2023-03-16T14:53:40;21.50;25.90
18291;DHT22;9271;48.590;8.866;2023-03-16T14:56:10;21.10;26.30
18291;DHT22;9271;48.590;8.866;2023-03-16T14:58:37;20.70;26.60
18291;DHT22;9271;48.590;8.866;2023-03-16T15:01:04;20.30;26.50
18291;DHT22;9271;48.590;8.866;2023-03-16T15:03:34;19.80;27.50
18291;DHT22;9271;48.590;8.866;2023-03-16T15:06:02;19.80;27.70
18291;DHT22;9271;48.590;8.866;2023-03-16T15:08:30;19.60;27.60
18291;DHT22;9271;48.590;8.866;2023-03-16T15:11:00;19.70;29.00
18291;DHT22;9271;48.590;8.866;2023-03-16T15:13:27;19.70;28.00
18291;DHT22;9271;48.590;8.866;2023-03-16T15:16:18;19.80;27.60
18291;DHT22;9271;48.590;8.866;2023-03-16T15:18:45;20.20;27.10
18291;DHT22;9271;48.590;8.866;2023-03-16T15:21:13;20.60;26.80
18291;DHT22;9271;48.590;8.866;2023-03-16T15:23:43;20.70;27.30
18291;DHT22;9271;48.590;8.866;2023-03-16T15:26:10;20.10;27.50
18291;DHT22;9271;48.590;8.866;2023-03-16T15:28:38;19.50;27.50
18291;DHT22;9271;48.590;8.866;2023-03-16T15:31:05;19.30;29.30
18291;DHT22;9271;48.590;8.866;2023-03-16T15:33:32;19.40;28.60
18291;DHT22;9271;48.590;8.866;2023-03-16T15:36:00;19.50;28.60
18291;DHT22;9271;48.590;8.866;2023-03-16T15:38:29;19.70;29.70
18291;DHT22;9271;48.590;8.866;2023-03-16T15:40:58;19.70;29.00
18291;DHT22;9271;48.590;8.866;2023-03-16T15:43:28;19.00;29.50
18291;DHT22;9271;48.590;8.866;2023-03-16T15:45:56;18.80;31.10
18291;DHT22;9271;48.590;8.866;2023-03-16T15:48:23;18.30;32.00
18291;DHT22;9271;48.590;8.866;2023-03-16T15:50:52;18.00;32.50
18291;DHT22;9271;48.590;8.866;2023-03-16T15:53:23;17.50;32.80
18291;DHT22;9271;48.590;8.866;2023-03-16T15:55:53;17.20;33.10
18291;DHT22;9271;48.590;8.866;2023-03-16T15:58:25;17.30;32.30
18291;DHT22;9271;48.590;8.866;2023-03-16T16:00:54;17.70;33.10
18291;DHT22;9271;48.590;8.866;2023-03-16T16:03:22;17.70;33.70
18291;DHT22;9271;48.590;8.866;2023-03-16T16:05:49;17.50;33.50
18291;DHT22;9271;48.590;8.866;2023-03-16T16:08:16;17.40;33.70